sensor_id;sensor_type;location;lat;lon;timestamp;temperature;humidity
66576;SHT31;53428;47.686;16.584;2023-08-12T00:04:03;16.54;89.51
66576;SHT31;53428;47.686;16.584;2023-08-12T00:09:02;16.47;89.48
66576;SHT31;53428;47.686;16.584;2023-08-12T00:14:03;16.44;89.77
66576;SHT31;53428;47.686;16.584;2023-08-12T00:19:03;16.24;90.63
66576;SHT31;53428;47.686;16.584;2023-08-12T00:24:02;16.06;90.93
66576;SHT31;53428;47.686;16.584;2023-08-12T00:29:02;16.14;90.63
66576;SHT31;53428;47.686;16.584;2023-08-12T00:34:01;16.12;91.49
66576;SHT31;53428;47.686;16.584;2023-08-12T00:39:01;16.13;90.64
66576;SHT31;53428;47.686;16.584;2023-08-12T00:44:00;16.12;90.00
66576;SHT31;53428;47.686;16.584;2023-08-12T00:49:00;16.06;90.53
66576;SHT31;53428;47.686;16.584;2023-08-12T00:53:59;15.79;91.61
66576;SHT31;53428;47.686;16.584;2023-08-12T00:59:04;15.86;91.70
66576;SHT31;53428;47.686;16.584;2023-08-12T01:04:04;15.96;91.07
66576;SHT31;53428;47.686;16.584;2023-08-12T01:09:04;15.68;92.05
66576;SHT31;53428;47.686;16.584;2023-08-12T01:14:18;15.50;92.93
66576;SHT31;53428;47.686;16.584;2023-08-12T01:19:29;15.35;93.52
66576;SHT31;53428;47.686;16.584;2023-08-12T01:24:39;15.37;93.72
66576;SHT31;53428;47.686;16.584;2023-08-12T01:29:44;15.31;93.78
66576;SHT31;53428;47.686;16.584;2023-08-12T01:39:56;15.20;94.08
66576;SHT31;53428;47.686;16.584;2023-08-12T01:44:57;15.04;94.16
66576;SHT31;53428;47.686;16.584;2023-08-12T01:49:57;14.97;94.14
66576;SHT31;53428;47.686;16.584;2023-08-12T01:54:56;14.79;94.26
66576;SHT31;53428;47.686;16.584;2023-08-12T01:59:56;14.62;94.83
66576;SHT31;53428;47.686;16.584;2023-08-12T02:04:55;14.55;95.18
66576;SHT31;53428;47.686;16.584;2023-08-12T02:09:55;14.52;95.30
66576;SHT31;53428;47.686;16.584;2023-08-12T02:14:54;14.44;95.21
66576;SHT31;53428;47.686;16.584;2023-08-12T02:19:53;14.39;95.66
66576;SHT31;53428;47.686;16.584;2023-08-12T02:24:52;14.41;95.72
66576;SHT31;53428;47.686;16.584;2023-08-12T02:29:52;14.39;95.50
66576;SHT31;53428;47.686;16.584;2023-08-12T02:34:51;14.32;95.88
66576;SHT31;53428;47.686;16.584;2023-08-12T02:39:51;14.25;96.00
66576;SHT31;53428;47.686;16.584;2023-08-12T02:44:50;14.24;96.20
66576;SHT31;53428;47.686;16.584;2023-08-12T02:49:49;14.20;96.30
66576;SHT31;53428;47.686;16.584;2023-08-12T02:54:48;14.21;96.17
66576;SHT31;53428;47.686;16.584;2023-08-12T02:59:48;14.28;96.15
66576;SHT31;53428;47.686;16.584;2023-08-12T03:04:47;14.18;96.06
66576;SHT31;53428;47.686;16.584;2023-08-12T03:09:46;14.08;96.38
66576;SHT31;53428;47.686;16.584;2023-08-12T03:14:45;14.07;96.67
66576;SHT31;53428;47.686;16.584;2023-08-12T03:19:45;14.08;96.55
66576;SHT31;53428;47.686;16.584;2023-08-12T03:24:44;14.11;96.79
66576;SHT31;53428;47.686;16.584;2023-08-12T03:29:43;14.03;97.04
66576;SHT31;53428;47.686;16.584;2023-08-12T03:34:43;14.11;97.01
66576;SHT31;53428;47.686;16.584;2023-08-12T03:39:42;14.20;96.68
66576;SHT31;53428;47.686;16.584;2023-08-12T03:44:41;14.18;96.48
66576;SHT31;53428;47.686;16.584;2023-08-12T03:49:40;14.15;96.52
66576;SHT31;53428;47.686;16.584;2023-08-12T03:54:40;14.07;96.75
66576;SHT31;53428;47.686;16.584;2023-08-12T03:59:39;14.13;96.72
66576;SHT31;53428;47.686;16.584;2023-08-12T04:04:39;14.17;96.48
66576;SHT31;53428;47.686;16.584;2023-08-12T04:09:38;14.18;96.38
66576;SHT31;53428;47.686;16.584;2023-08-12T04:14:37;14.14;96.24
66576;SHT31;53428;47.686;16.584;2023-08-12T04:19:36;14.18;95.94
66576;SHT31;53428;47.686;16.584;2023-08-12T04:24:36;14.11;95.97
66576;SHT31;53428;47.686;16.584;2023-08-12T04:29:35;14.06;96.06
66576;SHT31;53428;47.686;16.584;2023-08-12T04:34:35;14.10;96.38
66576;SHT31;53428;47.686;16.584;2023-08-12T04:39:34;14.22;95.60
66576;SHT31;53428;47.686;16.584;2023-08-12T04:44:33;14.32;95.48
66576;SHT31;53428;47.686;16.584;2023-08-12T04:49:32;14.45;95.08
66576;SHT31;53428;47.686;16.584;2023-08-12T04:54:32;14.54;94.93
66576;SHT31;53428;47.686;16.584;2023-08-12T04:59:31;14.72;94.41
66576;SHT31;53428;47.686;16.584;2023-08-12T05:04:31;14.89;94.01
66576;SHT31;53428;47.686;16.584;2023-08-12T05:09:30;15.06;93.20
66576;SHT31;53428;47.686;16.584;2023-08-12T05:14:30;15.16;93.02
66576;SHT31;53428;47.686;16.584;2023-08-12T05:19:29;15.38;92.46
66576;SHT31;53428;47.686;16.584;2023-08-12T05:24:29;15.58;91.95
66576;SHT31;53428;47.686;16.584;2023-08-12T05:29:28;15.83;91.23
66576;SHT31;53428;47.686;16.584;2023-08-12T05:34:27;16.17;90.16
66576;SHT31;53428;47.686;16.584;2023-08-12T05:39:26;16.41;89.23
66576;SHT31;53428;47.686;16.584;2023-08-12T05:44:26;16.76;88.79
66576;SHT31;53428;47.686;16.584;2023-08-12T05:49:25;16.92;87.61
66576;SHT31;53428;47.686;16.584;2023-08-12T05:54:24;17.11;87.13
66576;SHT31;53428;47.686;16.584;2023-08-12T05:59:23;17.32;87.19
66576;SHT31;53428;47.686;16.584;2023-08-12T06:04:22;17.43;87.66
66576;SHT31;53428;47.686;16.584;2023-08-12T06:09:22;17.69;87.35
66576;SHT31;53428;47.686;16.584;2023-08-12T06:14:21;17.88;86.94
66576;SHT31;53428;47.686;16.584;2023-08-12T06:19:20;18.08;86.41
66576;SHT31;53428;47.686;16.584;2023-08-12T06:24:19;18.26;85.65
66576;SHT31;53428;47.686;16.584;2023-08-12T06:29:19;18.64;84.93
66576;SHT31;53428;47.686;16.584;2023-08-12T06:34:18;18.88;85.15
66576;SHT31;53428;47.686;16.584;2023-08-12T06:39:17;19.16;85.09
66576;SHT31;53428;47.686;16.584;2023-08-12T06:44:16;19.08;84.72
66576;SHT31;53428;47.686;16.584;2023-08-12T06:49:16;19.35;84.54
66576;SHT31;53428;47.686;16.584;2023-08-12T06:54:15;19.53;84.56
66576;SHT31;53428;47.686;16.584;2023-08-12T06:59:14;19.73;83.39
66576;SHT31;53428;47.686;16.584;2023-08-12T07:04:14;19.90;82.54
66576;SHT31;53428;47.686;16.584;2023-08-12T07:09:13;20.06;82.07
66576;SHT31;53428;47.686;16.584;2023-08-12T07:14:12;20.31;82.19
66576;SHT31;53428;47.686;16.584;2023-08-12T07:19:11;20.72;82.06
66576;SHT31;53428;47.686;16.584;2023-08-12T07:24:11;20.95;80.47
66576;SHT31;53428;47.686;16.584;2023-08-12T07:29:10;21.23;80.86
66576;SHT31;53428;47.686;16.584;2023-08-12T07:34:09;21.45;80.27
66576;SHT31;53428;47.686;16.584;2023-08-12T07:39:12;21.66;79.02
66576;SHT31;53428;47.686;16.584;2023-08-12T07:44:11;21.96;77.94
66576;SHT31;53428;47.686;16.584;2023-08-12T07:49:10;22.16;77.51
66576;SHT31;53428;47.686;16.584;2023-08-12T07:54:10;22.46;77.22
66576;SHT31;53428;47.686;16.584;2023-08-12T07:59:09;22.74;75.42
66576;SHT31;53428;47.686;16.584;2023-08-12T08:04:09;23.08;74.31
66576;SHT31;53428;47.686;16.584;2023-08-12T08:09:08;23.22;73.68
66576;SHT31;53428;47.686;16.584;2023-08-12T08:14:07;23.49;73.60
66576;SHT31;53428;47.686;16.584;2023-08-12T08:19:07;23.77;73.15
66576;SHT31;53428;47.686;16.584;2023-08-12T08:24:08;24.00;73.02
66576;SHT31;53428;47.686;16.584;2023-08-12T08:29:10;24.38;72.44
66576;SHT31;53428;47.686;16.584;2023-08-12T08:34:09;24.40;73.63
66576;SHT31;53428;47.686;16.584;2023-08-12T08:39:09;24.86;71.92
66576;SHT31;53428;47.686;16.584;2023-08-12T08:44:08;24.73;72.40
66576;SHT31;53428;47.686;16.584;2023-08-12T08:49:09;25.20;72.08
66576;SHT31;53428;47.686;16.584;2023-08-12T08:54:11;25.35;71.65
66576;SHT31;53428;47.686;16.584;2023-08-12T08:59:10;25.73;70.35
66576;SHT31;53428;47.686;16.584;2023-08-12T09:04:10;25.75;70.38
66576;SHT31;53428;47.686;16.584;2023-08-12T09:09:12;25.90;70.88
66576;SHT31;53428;47.686;16.584;2023-08-12T09:14:11;26.13;69.54
66576;SHT31;53428;47.686;16.584;2023-08-12T09:19:10;26.54;64.52
66576;SHT31;53428;47.686;16.584;2023-08-12T09:24:09;26.86;64.17
66576;SHT31;53428;47.686;16.584;2023-08-12T09:29:09;27.06;62.28
66576;SHT31;53428;47.686;16.584;2023-08-12T09:34:08;27.12;62.19
66576;SHT31;53428;47.686;16.584;2023-08-12T09:39:07;26.89;61.50
66576;SHT31;53428;47.686;16.584;2023-08-12T09:44:10;27.29;60.54
66576;SHT31;53428;47.686;16.584;2023-08-12T09:49:09;27.54;60.34
66576;SHT31;53428;47.686;16.584;2023-08-12T09:54:09;27.34;59.14
66576;SHT31;53428;47.686;16.584;2023-08-12T09:59:11;27.58;59.68
66576;SHT31;53428;47.686;16.584;2023-08-12T10:04:11;27.98;59.32
66576;SHT31;53428;47.686;16.584;2023-08-12T10:09:15;28.02;58.98
66576;SHT31;53428;47.686;16.584;2023-08-12T10:14:14;27.97;59.13
66576;SHT31;53428;47.686;16.584;2023-08-12T10:19:16;28.35;58.02
66576;SHT31;53428;47.686;16.584;2023-08-12T10:24:16;28.48;56.87
66576;SHT31;53428;47.686;16.584;2023-08-12T10:29:16;28.66;57.35
66576;SHT31;53428;47.686;16.584;2023-08-12T10:34:22;28.66;56.30
66576;SHT31;53428;47.686;16.584;2023-08-12T10:39:28;28.46;55.83
66576;SHT31;53428;47.686;16.584;2023-08-12T10:44:49;28.42;56.62
66576;SHT31;53428;47.686;16.584;2023-08-12T10:49:49;28.88;56.34
66576;SHT31;53428;47.686;16.584;2023-08-12T10:54:49;29.39;55.96
66576;SHT31;53428;47.686;16.584;2023-08-12T10:59:50;30.32;52.96
66576;SHT31;53428;47.686;16.584;2023-08-12T11:04:53;30.16;53.37
66576;SHT31;53428;47.686;16.584;2023-08-12T11:09:52;30.89;51.73
66576;SHT31;53428;47.686;16.584;2023-08-12T11:14:57;31.99;49.46
66576;SHT31;53428;47.686;16.584;2023-08-12T11:19:57;31.91;50.46
66576;SHT31;53428;47.686;16.584;2023-08-12T11:24:57;32.68;48.83
66576;SHT31;53428;47.686;16.584;2023-08-12T11:29:57;32.26;49.00
66576;SHT31;53428;47.686;16.584;2023-08-12T11:34:56;32.37;49.13
66576;SHT31;53428;47.686;16.584;2023-08-12T11:39:55;32.44;49.49
66576;SHT31;53428;47.686;16.584;2023-08-12T11:44:55;32.64;48.37
66576;SHT31;53428;47.686;16.584;2023-08-12T11:49:54;33.19;47.99
66576;SHT31;53428;47.686;16.584;2023-08-12T11:54:53;33.36;48.09
66576;SHT31;53428;47.686;16.584;2023-08-12T11:59:58;32.83;49.02
66576;SHT31;53428;47.686;16.584;2023-08-12T12:04:58;33.51;47.65
66576;SHT31;53428;47.686;16.584;2023-08-12T12:09:58;33.39;47.29
66576;SHT31;53428;47.686;16.584;2023-08-12T12:14:57;33.34;48.01
66576;SHT31;53428;47.686;16.584;2023-08-12T12:19:58;34.68;46.02
66576;SHT31;53428;47.686;16.584;2023-08-12T12:25:09;34.72;45.45
66576;SHT31;53428;47.686;16.584;2023-08-12T12:30:11;33.42;47.13
66576;SHT31;53428;47.686;16.584;2023-08-12T12:35:10;35.00;45.53
66576;SHT31;53428;47.686;16.584;2023-08-12T12:40:10;33.83;47.75
66576;SHT31;53428;47.686;16.584;2023-08-12T12:45:10;33.90;46.19
66576;SHT31;53428;47.686;16.584;2023-08-12T12:50:09;35.09;45.73
66576;SHT31;53428;47.686;16.584;2023-08-12T12:55:09;35.16;45.43
66576;SHT31;53428;47.686;16.584;2023-08-12T13:00:09;34.85;45.87
66576;SHT31;53428;47.686;16.584;2023-08-12T13:05:10;34.38;46.11
66576;SHT31;53428;47.686;16.584;2023-08-12T13:10:10;35.57;44.60
66576;SHT31;53428;47.686;16.584;2023-08-12T13:15:09;35.03;45.79
66576;SHT31;53428;47.686;16.584;2023-08-12T13:20:09;33.62;47.85
66576;SHT31;53428;47.686;16.584;2023-08-12T13:25:08;33.80;48.13
66576;SHT31;53428;47.686;16.584;2023-08-12T13:30:08;35.44;45.46
66576;SHT31;53428;47.686;16.584;2023-08-12T13:35:07;35.43;45.60
66576;SHT31;53428;47.686;16.584;2023-08-12T13:40:07;35.39;45.55
66576;SHT31;53428;47.686;16.584;2023-08-12T13:45:09;35.42;46.14
66576;SHT31;53428;47.686;16.584;2023-08-12T13:50:09;35.07;46.37
66576;SHT31;53428;47.686;16.584;2023-08-12T13:55:08;35.19;46.58
66576;SHT31;53428;47.686;16.584;2023-08-12T14:00:08;35.17;46.83
66576;SHT31;53428;47.686;16.584;2023-08-12T14:05:12;35.47;46.60
66576;SHT31;53428;47.686;16.584;2023-08-12T14:10:11;35.33;47.12
66576;SHT31;53428;47.686;16.584;2023-08-12T14:15:11;34.71;47.73
66576;SHT31;53428;47.686;16.584;2023-08-12T14:20:11;35.02;47.60
66576;SHT31;53428;47.686;16.584;2023-08-12T14:25:10;36.11;45.76
66576;SHT31;53428;47.686;16.584;2023-08-12T14:30:10;34.82;47.83
66576;SHT31;53428;47.686;16.584;2023-08-12T14:35:10;36.50;45.38
66576;SHT31;53428;47.686;16.584;2023-08-12T14:40:09;35.30;47.81
66576;SHT31;53428;47.686;16.584;2023-08-12T14:45:09;35.20;47.10
66576;SHT31;53428;47.686;16.584;2023-08-12T14:50:09;35.50;45.98
66576;SHT31;53428;47.686;16.584;2023-08-12T14:55:09;34.99;46.96
66576;SHT31;53428;47.686;16.584;2023-08-12T15:00:09;36.01;45.70
66576;SHT31;53428;47.686;16.584;2023-08-12T15:05:09;35.32;46.21
66576;SHT31;53428;47.686;16.584;2023-08-12T15:10:09;36.32;45.30
66576;SHT31;53428;47.686;16.584;2023-08-12T15:15:08;34.11;47.72
66576;SHT31;53428;47.686;16.584;2023-08-12T15:20:08;34.36;48.01
66576;SHT31;53428;47.686;16.584;2023-08-12T15:25:09;34.30;47.74
66576;SHT31;53428;47.686;16.584;2023-08-12T15:30:09;34.59;47.61
66576;SHT31;53428;47.686;16.584;2023-08-12T15:35:09;34.62;47.22
66576;SHT31;53428;47.686;16.584;2023-08-12T15:40:09;35.23;46.74
66576;SHT31;53428;47.686;16.584;2023-08-12T15:45:08;35.10;46.94
66576;SHT31;53428;47.686;16.584;2023-08-12T15:50:08;34.75;46.35
66576;SHT31;53428;47.686;16.584;2023-08-12T15:55:08;34.72;47.48
66576;SHT31;53428;47.686;16.584;2023-08-12T16:00:08;35.47;46.65
66576;SHT31;53428;47.686;16.584;2023-08-12T16:05:09;35.58;46.48
66576;SHT31;53428;47.686;16.584;2023-08-12T16:10:08;35.92;45.98
66576;SHT31;53428;47.686;16.584;2023-08-12T16:15:09;34.71;47.55
66576;SHT31;53428;47.686;16.584;2023-08-12T16:20:08;34.49;47.90
66576;SHT31;53428;47.686;16.584;2023-08-12T16:25:08;34.81;47.98
66576;SHT31;53428;47.686;16.584;2023-08-12T16:30:08;33.46;49.58
66576;SHT31;53428;47.686;16.584;2023-08-12T16:35:08;32.68;51.29
66576;SHT31;53428;47.686;16.584;2023-08-12T16:40:07;33.66;50.04
66576;SHT31;53428;47.686;16.584;2023-08-12T16:45:07;33.04;51.20
66576;SHT31;53428;47.686;16.584;2023-08-12T16:50:07;31.98;53.09
66576;SHT31;53428;47.686;16.584;2023-08-12T16:55:06;32.08;52.86
66576;SHT31;53428;47.686;16.584;2023-08-12T17:00:06;32.55;51.94
66576;SHT31;53428;47.686;16.584;2023-08-12T17:05:06;33.25;50.95
66576;SHT31;53428;47.686;16.584;2023-08-12T17:10:06;32.39;52.92
66576;SHT31;53428;47.686;16.584;2023-08-12T17:15:05;29.99;57.54
66576;SHT31;53428;47.686;16.584;2023-08-12T17:20:05;28.28;61.31
66576;SHT31;53428;47.686;16.584;2023-08-12T17:25:05;27.26;63.51
66576;SHT31;53428;47.686;16.584;2023-08-12T17:30:05;26.75;65.23
66576;SHT31;53428;47.686;16.584;2023-08-12T17:35:05;26.31;66.36
66576;SHT31;53428;47.686;16.584;2023-08-12T17:40:05;25.62;68.42
66576;SHT31;53428;47.686;16.584;2023-08-12T17:45:05;25.42;69.06
66576;SHT31;53428;47.686;16.584;2023-08-12T17:50:08;25.03;70.19
66576;SHT31;53428;47.686;16.584;2023-08-12T17:55:09;24.73;71.09
66576;SHT31;53428;47.686;16.584;2023-08-12T18:00:09;24.56;71.69
66576;SHT31;53428;47.686;16.584;2023-08-12T18:05:08;24.19;72.82
66576;SHT31;53428;47.686;16.584;2023-08-12T18:10:08;23.91;73.58
66576;SHT31;53428;47.686;16.584;2023-08-12T18:15:08;23.70;74.33
66576;SHT31;53428;47.686;16.584;2023-08-12T18:20:07;23.35;75.04
66576;SHT31;53428;47.686;16.584;2023-08-12T18:25:07;23.30;75.17
66576;SHT31;53428;47.686;16.584;2023-08-12T18:30:07;23.12;75.51
66576;SHT31;53428;47.686;16.584;2023-08-12T18:35:07;22.94;75.97
66576;SHT31;53428;47.686;16.584;2023-08-12T18:40:06;22.85;76.05
66576;SHT31;53428;47.686;16.584;2023-08-12T18:45:09;22.68;76.22
66576;SHT31;53428;47.686;16.584;2023-08-12T18:50:08;22.69;76.06
66576;SHT31;53428;47.686;16.584;2023-08-12T18:55:08;22.63;75.83
66576;SHT31;53428;47.686;16.584;2023-08-12T19:00:09;22.37;76.34
66576;SHT31;53428;47.686;16.584;2023-08-12T19:05:12;22.29;76.65
66576;SHT31;53428;47.686;16.584;2023-08-12T19:10:12;22.33;76.53
66576;SHT31;53428;47.686;16.584;2023-08-12T19:15:11;22.12;76.82
66576;SHT31;53428;47.686;16.584;2023-08-12T19:20:11;22.02;77.22
66576;SHT31;53428;47.686;16.584;2023-08-12T19:25:10;22.06;77.10
66576;SHT31;53428;47.686;16.584;2023-08-12T19:30:10;21.98;76.94
66576;SHT31;53428;47.686;16.584;2023-08-12T19:35:10;21.89;77.20
66576;SHT31;53428;47.686;16.584;2023-08-12T19:40:10;21.88;77.41
66576;SHT31;53428;47.686;16.584;2023-08-12T19:45:10;21.86;77.14
66576;SHT31;53428;47.686;16.584;2023-08-12T19:50:11;21.78;77.59
66576;SHT31;53428;47.686;16.584;2023-08-12T19:55:11;21.57;78.02
66576;SHT31;53428;47.686;16.584;2023-08-12T20:00:11;21.51;78.48
66576;SHT31;53428;47.686;16.584;2023-08-12T20:05:18;21.61;78.22
66576;SHT31;53428;47.686;16.584;2023-08-12T20:10:19;21.59;77.95
66576;SHT31;53428;47.686;16.584;2023-08-12T20:15:20;21.54;78.18
66576;SHT31;53428;47.686;16.584;2023-08-12T20:20:19;21.47;78.33
66576;SHT31;53428;47.686;16.584;2023-08-12T20:25:19;21.58;77.90
66576;SHT31;53428;47.686;16.584;2023-08-12T20:30:19;21.52;78.15
66576;SHT31;53428;47.686;16.584;2023-08-12T20:35:19;21.59;78.16
66576;SHT31;53428;47.686;16.584;2023-08-12T20:40:19;21.37;78.54
66576;SHT31;53428;47.686;16.584;2023-08-12T20:45:18;21.40;78.65
66576;SHT31;53428;47.686;16.584;2023-08-12T20:50:18;21.30;79.01
66576;SHT31;53428;47.686;16.584;2023-08-12T20:55:18;21.28;79.03
66576;SHT31;53428;47.686;16.584;2023-08-12T21:00:17;21.62;77.88
66576;SHT31;53428;47.686;16.584;2023-08-12T21:05:17;21.51;78.20
66576;SHT31;53428;47.686;16.584;2023-08-12T21:10:16;21.61;77.97
66576;SHT31;53428;47.686;16.584;2023-08-12T21:15:15;21.44;78.47
66576;SHT31;53428;47.686;16.584;2023-08-12T21:20:15;21.61;77.99
66576;SHT31;53428;47.686;16.584;2023-08-12T21:25:15;21.64;77.74
66576;SHT31;53428;47.686;16.584;2023-08-12T21:30:14;21.65;77.39
66576;SHT31;53428;47.686;16.584;2023-08-12T21:35:13;21.68;76.88
66576;SHT31;53428;47.686;16.584;2023-08-12T21:40:13;21.74;76.21
66576;SHT31;53428;47.686;16.584;2023-08-12T21:45:12;21.62;76.43
66576;SHT31;53428;47.686;16.584;2023-08-12T21:50:11;21.77;75.73
66576;SHT31;53428;47.686;16.584;2023-08-12T21:55:11;21.81;75.25
66576;SHT31;53428;47.686;16.584;2023-08-12T22:00:12;21.85;75.05
66576;SHT31;53428;47.686;16.584;2023-08-12T22:05:13;21.83;74.89
66576;SHT31;53428;47.686;16.584;2023-08-12T22:10:12;21.72;74.94
66576;SHT31;53428;47.686;16.584;2023-08-12T22:15:12;21.57;75.21
66576;SHT31;53428;47.686;16.584;2023-08-12T22:20:11;21.71;74.88
66576;SHT31;53428;47.686;16.584;2023-08-12T22:25:13;21.74;74.82
66576;SHT31;53428;47.686;16.584;2023-08-12T22:30:12;21.66;74.95
66576;SHT31;53428;47.686;16.584;2023-08-12T22:35:11;21.61;75.41
66576;SHT31;53428;47.686;16.584;2023-08-12T22:40:11;21.45;75.94
66576;SHT31;53428;47.686;16.584;2023-08-12T22:45:10;21.35;76.18
66576;SHT31;53428;47.686;16.584;2023-08-12T22:50:11;21.14;76.71
66576;SHT31;53428;47.686;16.584;2023-08-12T22:55:11;20.89;77.78
66576;SHT31;53428;47.686;16.584;2023-08-12T23:00:11;21.04;77.38
66576;SHT31;53428;47.686;16.584;2023-08-12T23:05:10;20.79;78.10
66576;SHT31;53428;47.686;16.584;2023-08-12T23:10:09;20.76;78.36
66576;SHT31;53428;47.686;16.584;2023-08-12T23:15:09;20.75;78.47
66576;SHT31;53428;47.686;16.584;2023-08-12T23:20:08;20.73;78.41
66576;SHT31;53428;47.686;16.584;2023-08-12T23:25:08;20.80;78.46
66576;SHT31;53428;47.686;16.584;2023-08-12T23:30:08;20.65;78.91
66576;SHT31;53428;47.686;16.584;2023-08-12T23:35:07;20.68;78.88
66576;SHT31;53428;47.686;16.584;2023-08-12T23:40:07;20.77;79.01
66576;SHT31;53428;47.686;16.584;2023-08-12T23:45:07;20.71;79.14
66576;SHT31;53428;47.686;16.584;2023-08-12T23:50:07;20.72;79.20
66576;SHT31;53428;47.686;16.584;2023-08-12T23:55:07;20.76;79.26
